sensor_id;sensor_type;location;lat;lon;timestamp;pressure;altitude;pressure_sealevel;temperature;humidity
61026;BME280;46911;32.650;-16.902;2023-06-22T00:00:43;101741.81;;;20.30;68.45
61026;BME280;46911;32.650;-16.902;2023-06-22T00:02:48;101758.63;;;20.33;68.83
61026;BME280;46911;32.650;-16.902;2023-06-22T00:04:48;101755.66;;;20.36;69.18
61026;BME280;46911;32.650;-16.902;2023-06-22T00:06:49;101751.91;;;20.37;69.69
61026;BME280;46911;32.650;-16.902;2023-06-22T00:08:55;101751.63;;;20.31;69.66
61026;BME280;46911;32.650;-16.902;2023-06-22T00:10:56;101754.50;;;20.29;70.35
61026;BME280;46911;32.650;-16.902;2023-06-22T00:12:57;101753.81;;;20.27;70.79
61026;BME280;46911;32.650;-16.902;2023-06-22T00:15:02;101752.38;;;20.23;70.94
61026;BME280;46911;32.650;-16.902;2023-06-22T00:17:03;101745.50;;;20.19;70.97
61026;BME280;46911;32.650;-16.902;2023-06-22T00:19:04;101746.94;;;20.13;71.44
61026;BME280;46911;32.650;-16.902;2023-06-22T00:21:05;101748.38;;;20.17;71.63
61026;BME280;46911;32.650;-16.902;2023-06-22T00:23:07;101739.25;;;20.09;71.46
61026;BME280;46911;32.650;-16.902;2023-06-22T00:25:09;101746.25;;;20.11;71.33
61026;BME280;46911;32.650;-16.902;2023-06-22T00:27:10;101755.22;;;20.12;71.60
61026;BME280;46911;32.650;-16.902;2023-06-22T00:29:12;101743.09;;;20.06;71.37
61026;BME280;46911;32.650;-16.902;2023-06-22T00:31:13;101752.50;;;20.12;71.35
61026;BME280;46911;32.650;-16.902;2023-06-22T00:33:14;101750.63;;;20.12;71.09
61026;BME280;46911;32.650;-16.902;2023-06-22T00:35:19;101747.09;;;20.12;71.12
61026;BME280;46911;32.650;-16.902;2023-06-22T00:37:20;101734.97;;;20.06;70.87
61026;BME280;46911;32.650;-16.902;2023-06-22T00:39:30;101753.34;;;20.12;70.24
61026;BME280;46911;32.650;-16.902;2023-06-22T00:41:34;101738.13;;;20.11;69.93
61026;BME280;46911;32.650;-16.902;2023-06-22T00:43:35;101739.53;;;20.15;69.72
61026;BME280;46911;32.650;-16.902;2023-06-22T00:45:38;101730.69;;;20.13;68.85
61026;BME280;46911;32.650;-16.902;2023-06-22T00:47:44;101735.25;;;20.22;68.87
61026;BME280;46911;32.650;-16.902;2023-06-22T00:49:49;101735.41;;;20.21;68.55
61026;BME280;46911;32.650;-16.902;2023-06-22T00:51:53;101739.22;;;20.28;68.96
61026;BME280;46911;32.650;-16.902;2023-06-22T00:53:54;101742.09;;;20.27;68.40
61026;BME280;46911;32.650;-16.902;2023-06-22T00:55:58;101725.00;;;20.16;68.70
61026;BME280;46911;32.650;-16.902;2023-06-22T00:58:00;101711.56;;;20.15;69.40
61026;BME280;46911;32.650;-16.902;2023-06-22T01:00:03;101736.09;;;20.13;69.33
61026;BME280;46911;32.650;-16.902;2023-06-22T01:02:08;101727.00;;;20.04;69.54
61026;BME280;46911;32.650;-16.902;2023-06-22T01:04:09;101730.84;;;20.02;69.82
61026;BME280;46911;32.650;-16.902;2023-06-22T01:06:23;101724.13;;;19.96;69.73
61026;BME280;46911;32.650;-16.902;2023-06-22T01:08:38;101726.53;;;19.89;69.45
61026;BME280;46911;32.650;-16.902;2023-06-22T01:10:54;101731.25;;;19.97;69.14
61026;BME280;46911;32.650;-16.902;2023-06-22T01:13:02;101725.84;;;19.87;69.09
61026;BME280;46911;32.650;-16.902;2023-06-22T01:15:08;101724.94;;;19.77;69.33
61026;BME280;46911;32.650;-16.902;2023-06-22T01:17:15;101725.78;;;19.78;69.53
61026;BME280;46911;32.650;-16.902;2023-06-22T01:19:28;101734.03;;;19.76;69.71
61026;BME280;46911;32.650;-16.902;2023-06-22T01:21:40;101727.47;;;19.79;69.35
61026;BME280;46911;32.650;-16.902;2023-06-22T01:23:54;101727.38;;;19.80;69.59
61026;BME280;46911;32.650;-16.902;2023-06-22T01:26:08;101708.38;;;19.70;69.72
61026;BME280;46911;32.650;-16.902;2023-06-22T01:30:22;101727.91;;;19.64;69.81
61026;BME280;46911;32.650;-16.902;2023-06-22T01:32:32;101719.19;;;19.61;69.74
61026;BME280;46911;32.650;-16.902;2023-06-22T01:34:38;101716.91;;;19.56;69.95
61026;BME280;46911;32.650;-16.902;2023-06-22T01:36:40;101728.03;;;19.63;69.82
61026;BME280;46911;32.650;-16.902;2023-06-22T01:38:47;101720.50;;;19.66;69.64
61026;BME280;46911;32.650;-16.902;2023-06-22T01:40:48;101726.63;;;19.68;69.12
61026;BME280;46911;32.650;-16.902;2023-06-22T01:42:53;101712.06;;;19.69;69.39
61026;BME280;46911;32.650;-16.902;2023-06-22T01:44:54;101726.19;;;19.73;69.21
61026;BME280;46911;32.650;-16.902;2023-06-22T01:46:59;101720.38;;;19.78;68.36
61026;BME280;46911;32.650;-16.902;2023-06-22T01:49:04;101712.81;;;19.71;68.86
61026;BME280;46911;32.650;-16.902;2023-06-22T01:51:06;101715.66;;;19.70;68.12
61026;BME280;46911;32.650;-16.902;2023-06-22T01:53:07;101709.53;;;19.68;67.90
61026;BME280;46911;32.650;-16.902;2023-06-22T01:55:08;101716.09;;;19.75;68.00
61026;BME280;46911;32.650;-16.902;2023-06-22T01:57:11;101713.53;;;19.73;67.81
61026;BME280;46911;32.650;-16.902;2023-06-22T01:59:53;101713.53;;;19.73;67.50
61026;BME280;46911;32.650;-16.902;2023-06-22T02:02:10;101708.69;;;19.67;67.83
61026;BME280;46911;32.650;-16.902;2023-06-22T02:04:19;101714.63;;;19.61;68.10
61026;BME280;46911;32.650;-16.902;2023-06-22T02:06:25;101716.66;;;19.59;68.04
61026;BME280;46911;32.650;-16.902;2023-06-22T02:08:35;101701.94;;;19.52;68.24
61026;BME280;46911;32.650;-16.902;2023-06-22T02:10:40;101712.63;;;19.53;68.52
61026;BME280;46911;32.650;-16.902;2023-06-22T02:12:42;101708.22;;;19.52;68.45
61026;BME280;46911;32.650;-16.902;2023-06-22T02:14:48;101701.25;;;19.50;68.38
61026;BME280;46911;32.650;-16.902;2023-06-22T02:16:50;101702.50;;;19.46;68.60
61026;BME280;46911;32.650;-16.902;2023-06-22T02:18:51;101706.06;;;19.46;68.85
61026;BME280;46911;32.650;-16.902;2023-06-22T02:20:52;101694.53;;;19.44;68.67
61026;BME280;46911;32.650;-16.902;2023-06-22T02:22:53;101694.84;;;19.51;68.84
61026;BME280;46911;32.650;-16.902;2023-06-22T02:24:54;101702.81;;;19.52;68.74
61026;BME280;46911;32.650;-16.902;2023-06-22T02:26:55;101704.38;;;19.55;68.24
61026;BME280;46911;32.650;-16.902;2023-06-22T02:28:56;101708.91;;;19.54;68.47
61026;BME280;46911;32.650;-16.902;2023-06-22T02:30:59;101710.94;;;19.52;68.81
61026;BME280;46911;32.650;-16.902;2023-06-22T02:33:00;101703.78;;;19.42;68.60
61026;BME280;46911;32.650;-16.902;2023-06-22T02:35:04;101695.25;;;19.46;68.99
61026;BME280;46911;32.650;-16.902;2023-06-22T02:37:05;101693.66;;;19.34;68.71
61026;BME280;46911;32.650;-16.902;2023-06-22T02:39:06;101698.31;;;19.32;68.98
61026;BME280;46911;32.650;-16.902;2023-06-22T02:41:07;101703.72;;;19.32;68.60
61026;BME280;46911;32.650;-16.902;2023-06-22T02:43:08;101710.28;;;19.29;68.85
61026;BME280;46911;32.650;-16.902;2023-06-22T02:45:09;101702.00;;;19.21;69.16
61026;BME280;46911;32.650;-16.902;2023-06-22T02:47:10;101706.09;;;19.15;69.50
61026;BME280;46911;32.650;-16.902;2023-06-22T02:49:11;101703.69;;;19.12;69.31
61026;BME280;46911;32.650;-16.902;2023-06-22T02:51:15;101698.06;;;19.04;69.71
61026;BME280;46911;32.650;-16.902;2023-06-22T02:53:16;101704.22;;;19.06;69.49
61026;BME280;46911;32.650;-16.902;2023-06-22T02:55:21;101703.63;;;19.02;69.58
61026;BME280;46911;32.650;-16.902;2023-06-22T02:57:29;101702.47;;;18.95;69.60
61026;BME280;46911;32.650;-16.902;2023-06-22T02:59:33;101691.34;;;18.88;69.64
61026;BME280;46911;32.650;-16.902;2023-06-22T03:01:40;101709.00;;;18.93;69.36
61026;BME280;46911;32.650;-16.902;2023-06-22T03:03:50;101708.25;;;18.90;69.55
61026;BME280;46911;32.650;-16.902;2023-06-22T03:05:51;101712.81;;;18.90;69.26
61026;BME280;46911;32.650;-16.902;2023-06-22T03:07:57;101718.22;;;18.90;69.55
61026;BME280;46911;32.650;-16.902;2023-06-22T03:10:00;101713.81;;;18.89;69.70
61026;BME280;46911;32.650;-16.902;2023-06-22T03:12:01;101701.53;;;18.85;69.92
61026;BME280;46911;32.650;-16.902;2023-06-22T03:14:10;101704.97;;;18.87;69.84
61026;BME280;46911;32.650;-16.902;2023-06-22T03:16:11;101710.13;;;18.90;69.54
61026;BME280;46911;32.650;-16.902;2023-06-22T03:18:15;101709.31;;;18.99;69.23
61026;BME280;46911;32.650;-16.902;2023-06-22T03:20:19;101711.34;;;18.86;69.53
61026;BME280;46911;32.650;-16.902;2023-06-22T03:22:21;101707.22;;;18.82;69.60
61026;BME280;46911;32.650;-16.902;2023-06-22T03:24:23;101710.38;;;18.87;69.86
61026;BME280;46911;32.650;-16.902;2023-06-22T03:26:24;101697.78;;;18.76;70.13
61026;BME280;46911;32.650;-16.902;2023-06-22T03:28:31;101710.28;;;18.77;70.34
61026;BME280;46911;32.650;-16.902;2023-06-22T03:30:35;101702.31;;;18.76;69.88
61026;BME280;46911;32.650;-16.902;2023-06-22T03:32:41;101716.44;;;18.79;69.73
61026;BME280;46911;32.650;-16.902;2023-06-22T03:34:47;101695.75;;;18.68;69.45
61026;BME280;46911;32.650;-16.902;2023-06-22T03:36:50;101705.59;;;18.69;69.88
61026;BME280;46911;32.650;-16.902;2023-06-22T03:38:56;101699.44;;;18.67;69.75
61026;BME280;46911;32.650;-16.902;2023-06-22T03:41:00;101703.44;;;18.73;69.53
61026;BME280;46911;32.650;-16.902;2023-06-22T03:43:07;101704.31;;;18.73;69.32
61026;BME280;46911;32.650;-16.902;2023-06-22T03:45:10;101707.88;;;18.74;69.17
61026;BME280;46911;32.650;-16.902;2023-06-22T03:47:14;101701.88;;;18.70;68.49
61026;BME280;46911;32.650;-16.902;2023-06-22T03:49:15;101698.59;;;18.67;68.41
61026;BME280;46911;32.650;-16.902;2023-06-22T03:51:19;101709.88;;;18.72;67.90
61026;BME280;46911;32.650;-16.902;2023-06-22T03:53:25;101704.84;;;18.67;68.34
61026;BME280;46911;32.650;-16.902;2023-06-22T03:55:26;101712.25;;;18.65;68.17
61026;BME280;46911;32.650;-16.902;2023-06-22T03:57:27;101711.78;;;18.60;68.34
61026;BME280;46911;32.650;-16.902;2023-06-22T03:59:28;101710.78;;;18.61;68.41
61026;BME280;46911;32.650;-16.902;2023-06-22T04:01:29;101709.09;;;18.60;68.49
61026;BME280;46911;32.650;-16.902;2023-06-22T04:03:29;101711.19;;;18.56;68.54
61026;BME280;46911;32.650;-16.902;2023-06-22T04:05:30;101704.47;;;18.51;68.57
61026;BME280;46911;32.650;-16.902;2023-06-22T04:07:33;101707.50;;;18.57;68.19
61026;BME280;46911;32.650;-16.902;2023-06-22T04:09:36;101707.03;;;18.52;68.37
61026;BME280;46911;32.650;-16.902;2023-06-22T04:11:42;101711.56;;;18.52;68.58
61026;BME280;46911;32.650;-16.902;2023-06-22T04:13:45;101705.44;;;18.50;68.62
61026;BME280;46911;32.650;-16.902;2023-06-22T04:15:52;101694.19;;;18.45;68.65
61026;BME280;46911;32.650;-16.902;2023-06-22T04:17:54;101696.19;;;18.43;68.61
61026;BME280;46911;32.650;-16.902;2023-06-22T04:19:57;101706.09;;;18.42;68.79
61026;BME280;46911;32.650;-16.902;2023-06-22T04:21:58;101711.50;;;18.42;68.66
61026;BME280;46911;32.650;-16.902;2023-06-22T04:24:01;101718.03;;;18.39;68.53
61026;BME280;46911;32.650;-16.902;2023-06-22T04:26:05;101709.69;;;18.43;68.21
61026;BME280;46911;32.650;-16.902;2023-06-22T04:28:05;101714.47;;;18.39;68.23
61026;BME280;46911;32.650;-16.902;2023-06-22T04:30:10;101717.47;;;18.36;67.54
61026;BME280;46911;32.650;-16.902;2023-06-22T04:32:13;101720.88;;;18.38;68.06
61026;BME280;46911;32.650;-16.902;2023-06-22T04:34:15;101731.28;;;18.43;68.06
61026;BME280;46911;32.650;-16.902;2023-06-22T04:36:19;101724.16;;;18.42;67.85
61026;BME280;46911;32.650;-16.902;2023-06-22T04:38:21;101725.22;;;18.50;68.23
61026;BME280;46911;32.650;-16.902;2023-06-22T04:40:25;101727.78;;;18.52;67.30
61026;BME280;46911;32.650;-16.902;2023-06-22T04:42:26;101715.19;;;18.41;66.71
61026;BME280;46911;32.650;-16.902;2023-06-22T04:44:27;101729.50;;;18.53;66.93
61026;BME280;46911;32.650;-16.902;2023-06-22T04:46:28;101738.47;;;18.53;67.09
61026;BME280;46911;32.650;-16.902;2023-06-22T04:48:29;101725.34;;;18.49;66.69
61026;BME280;46911;32.650;-16.902;2023-06-22T04:50:38;101725.88;;;18.43;67.24
61026;BME280;46911;32.650;-16.902;2023-06-22T04:52:43;101722.44;;;18.40;67.39
61026;BME280;46911;32.650;-16.902;2023-06-22T04:54:49;101734.25;;;18.39;67.33
61026;BME280;46911;32.650;-16.902;2023-06-22T04:56:58;101738.19;;;18.35;67.52
61026;BME280;46911;32.650;-16.902;2023-06-22T04:58:59;101731.00;;;18.24;67.67
61026;BME280;46911;32.650;-16.902;2023-06-22T05:01:03;101741.53;;;18.28;67.91
61026;BME280;46911;32.650;-16.902;2023-06-22T05:03:06;101742.66;;;18.25;67.82
61026;BME280;46911;32.650;-16.902;2023-06-22T05:05:14;101733.09;;;18.21;68.22
61026;BME280;46911;32.650;-16.902;2023-06-22T05:07:15;101738.25;;;18.24;68.12
61026;BME280;46911;32.650;-16.902;2023-06-22T05:09:16;101743.38;;;18.27;68.16
61026;BME280;46911;32.650;-16.902;2023-06-22T05:11:18;101750.66;;;18.27;68.06
61026;BME280;46911;32.650;-16.902;2023-06-22T05:13:21;101759.59;;;18.27;68.10
61026;BME280;46911;32.650;-16.902;2023-06-22T05:15:27;101736.53;;;18.23;67.96
61026;BME280;46911;32.650;-16.902;2023-06-22T05:17:33;101757.16;;;18.24;68.32
61026;BME280;46911;32.650;-16.902;2023-06-22T05:19:37;101760.56;;;18.26;68.51
61026;BME280;46911;32.650;-16.902;2023-06-22T05:21:38;101758.13;;;18.23;68.56
61026;BME280;46911;32.650;-16.902;2023-06-22T05:23:39;101760.56;;;18.26;68.59
61026;BME280;46911;32.650;-16.902;2023-06-22T05:25:42;101750.53;;;18.17;68.88
61026;BME280;46911;32.650;-16.902;2023-06-22T05:27:47;101763.81;;;18.20;68.88
61026;BME280;46911;32.650;-16.902;2023-06-22T05:29:50;101756.81;;;18.17;69.37
61026;BME280;46911;32.650;-16.902;2023-06-22T05:31:54;101759.38;;;18.19;69.24
61026;BME280;46911;32.650;-16.902;2023-06-22T05:33:57;101744.09;;;18.08;69.48
61026;BME280;46911;32.650;-16.902;2023-06-22T05:36:00;101759.38;;;18.19;69.47
61026;BME280;46911;32.650;-16.902;2023-06-22T05:38:06;101755.94;;;18.17;69.52
61026;BME280;46911;32.650;-16.902;2023-06-22T05:40:10;101758.66;;;18.17;69.77
61026;BME280;46911;32.650;-16.902;2023-06-22T05:42:13;101762.31;;;18.16;69.74
61026;BME280;46911;32.650;-16.902;2023-06-22T05:44:19;101751.06;;;18.11;69.98
61026;BME280;46911;32.650;-16.902;2023-06-22T05:46:22;101756.13;;;18.04;70.19
61026;BME280;46911;32.650;-16.902;2023-06-22T05:48:24;101751.56;;;18.04;70.10
61026;BME280;46911;32.650;-16.902;2023-06-22T05:50:25;101764.81;;;18.07;70.12
61026;BME280;46911;32.650;-16.902;2023-06-22T05:52:28;101752.06;;;17.98;70.23
61026;BME280;46911;32.650;-16.902;2023-06-22T05:54:31;101752.06;;;17.98;70.58
61026;BME280;46911;32.650;-16.902;2023-06-22T05:56:32;101770.34;;;18.06;70.38
61026;BME280;46911;32.650;-16.902;2023-06-22T05:58:33;101762.25;;;18.06;70.59
61026;BME280;46911;32.650;-16.902;2023-06-22T06:00:38;101768.53;;;18.06;70.74
61026;BME280;46911;32.650;-16.902;2023-06-22T06:02:46;101762.09;;;18.07;70.58
61026;BME280;46911;32.650;-16.902;2023-06-22T06:04:47;101771.81;;;18.10;70.71
61026;BME280;46911;32.650;-16.902;2023-06-22T06:06:48;101762.38;;;18.04;70.77
61026;BME280;46911;32.650;-16.902;2023-06-22T06:08:49;101763.56;;;18.12;70.94
61026;BME280;46911;32.650;-16.902;2023-06-22T06:10:55;101764.44;;;18.12;71.10
61026;BME280;46911;32.650;-16.902;2023-06-22T06:12:57;101776.44;;;18.19;70.65
61026;BME280;46911;32.650;-16.902;2023-06-22T06:15:03;101768.59;;;18.16;70.70
61026;BME280;46911;32.650;-16.902;2023-06-22T06:17:04;101773.72;;;18.19;70.85
61026;BME280;46911;32.650;-16.902;2023-06-22T06:19:05;101774.72;;;18.18;70.91
61026;BME280;46911;32.650;-16.902;2023-06-22T06:21:06;101771.31;;;18.16;70.94
61026;BME280;46911;32.650;-16.902;2023-06-22T06:23:09;101784.75;;;18.28;70.98
61026;BME280;46911;32.650;-16.902;2023-06-22T06:25:16;101780.22;;;18.28;70.97
61026;BME280;46911;32.650;-16.902;2023-06-22T06:27:19;101767.09;;;18.23;70.97
61026;BME280;46911;32.650;-16.902;2023-06-22T06:29:20;101771.09;;;18.29;71.19
61026;BME280;46911;32.650;-16.902;2023-06-22T06:31:21;101783.41;;;18.33;71.03
61026;BME280;46911;32.650;-16.902;2023-06-22T06:33:24;101779.34;;;18.28;71.02
61026;BME280;46911;32.650;-16.902;2023-06-22T06:35:28;101789.13;;;18.40;71.23
61026;BME280;46911;32.650;-16.902;2023-06-22T06:37:28;101781.47;;;18.45;71.24
61026;BME280;46911;32.650;-16.902;2023-06-22T06:39:29;101776.88;;;18.57;71.20
61026;BME280;46911;32.650;-16.902;2023-06-22T06:41:30;101760.75;;;18.46;71.72
61026;BME280;46911;32.650;-16.902;2023-06-22T06:43:31;101797.00;;;18.64;71.54
61026;BME280;46911;32.650;-16.902;2023-06-22T06:45:32;101777.47;;;18.61;71.83
61026;BME280;46911;32.650;-16.902;2023-06-22T06:47:37;101781.03;;;18.61;71.55
61026;BME280;46911;32.650;-16.902;2023-06-22T06:49:41;101791.19;;;18.69;71.73
61026;BME280;46911;32.650;-16.902;2023-06-22T06:51:42;101792.16;;;18.68;71.48
61026;BME280;46911;32.650;-16.902;2023-06-22T06:53:42;101796.34;;;18.72;71.21
61026;BME280;46911;32.650;-16.902;2023-06-22T06:55:43;101789.94;;;18.73;70.90
61026;BME280;46911;32.650;-16.902;2023-06-22T06:57:46;101792.13;;;18.79;70.78
61026;BME280;46911;32.650;-16.902;2023-06-22T06:59:52;101803.13;;;18.87;70.62
61026;BME280;46911;32.650;-16.902;2023-06-22T07:01:53;101800.31;;;18.89;70.28
61026;BME280;46911;32.650;-16.902;2023-06-22T07:03:56;101805.34;;;18.94;70.31
61026;BME280;46911;32.650;-16.902;2023-06-22T07:05:57;101800.78;;;18.94;70.40
61026;BME280;46911;32.650;-16.902;2023-06-22T07:07:58;101801.38;;;18.98;70.22
61026;BME280;46911;32.650;-16.902;2023-06-22T07:10:02;101805.53;;;19.02;70.06
61026;BME280;46911;32.650;-16.902;2023-06-22T07:12:04;101813.84;;;19.10;70.38
61026;BME280;46911;32.650;-16.902;2023-06-22T07:14:08;101808.28;;;19.12;70.12
61026;BME280;46911;32.650;-16.902;2023-06-22T07:16:11;101813.16;;;19.18;69.73
61026;BME280;46911;32.650;-16.902;2023-06-22T07:18:12;101817.31;;;19.22;69.60
61026;BME280;46911;32.650;-16.902;2023-06-22T07:20:15;101803.06;;;19.20;69.77
61026;BME280;46911;32.650;-16.902;2023-06-22T07:22:16;101822.06;;;19.30;69.72
61026;BME280;46911;32.650;-16.902;2023-06-22T07:24:20;101817.94;;;19.35;69.26
61026;BME280;46911;32.650;-16.902;2023-06-22T07:26:21;101808.41;;;19.31;69.43
61026;BME280;46911;32.650;-16.902;2023-06-22T07:28:22;101823.69;;;19.42;69.29
61026;BME280;46911;32.650;-16.902;2023-06-22T07:30:23;101827.44;;;19.51;69.46
61026;BME280;46911;32.650;-16.902;2023-06-22T07:32:23;101822.72;;;19.53;69.13
61026;BME280;46911;32.650;-16.902;2023-06-22T07:34:24;101829.56;;;19.57;69.40
61026;BME280;46911;32.650;-16.902;2023-06-22T07:36:25;101823.31;;;19.56;69.36
61026;BME280;46911;32.650;-16.902;2023-06-22T07:38:30;101834.03;;;19.68;69.11
61026;BME280;46911;32.650;-16.902;2023-06-22T07:40:31;101835.47;;;19.72;68.93
61026;BME280;46911;32.650;-16.902;2023-06-22T07:42:32;101830.66;;;19.76;68.57
61026;BME280;46911;32.650;-16.902;2023-06-22T07:44:35;101834.53;;;19.83;68.38
61026;BME280;46911;32.650;-16.902;2023-06-22T07:46:39;101835.28;;;19.85;68.61
61026;BME280;46911;32.650;-16.902;2023-06-22T07:48:42;101844.81;;;19.89;68.13
61026;BME280;46911;32.650;-16.902;2023-06-22T07:50:44;101849.84;;;19.94;68.24
61026;BME280;46911;32.650;-16.902;2023-06-22T07:52:45;101854.09;;;19.96;68.35
61026;BME280;46911;32.650;-16.902;2023-06-22T07:54:47;101854.41;;;20.03;68.30
61026;BME280;46911;32.650;-16.902;2023-06-22T07:56:48;101861.00;;;20.10;67.89
61026;BME280;46911;32.650;-16.902;2023-06-22T07:58:49;101861.69;;;20.12;68.19
61026;BME280;46911;32.650;-16.902;2023-06-22T08:00:49;101863.84;;;20.18;68.17
61026;BME280;46911;32.650;-16.902;2023-06-22T08:02:50;101850.47;;;20.17;67.96
61026;BME280;46911;32.650;-16.902;2023-06-22T08:04:52;101865.44;;;20.31;68.09
61026;BME280;46911;32.650;-16.902;2023-06-22T08:06:53;101859.19;;;20.30;68.01
61026;BME280;46911;32.650;-16.902;2023-06-22T08:09:01;101872.47;;;20.43;67.92
61026;BME280;46911;32.650;-16.902;2023-06-22T08:11:02;101860.50;;;20.46;67.70
61026;BME280;46911;32.650;-16.902;2023-06-22T08:13:03;101866.91;;;20.54;67.61
61026;BME280;46911;32.650;-16.902;2023-06-22T08:15:04;101859.06;;;20.61;67.35
61026;BME280;46911;32.650;-16.902;2023-06-22T08:17:08;101858.06;;;20.62;66.98
61026;BME280;46911;32.650;-16.902;2023-06-22T08:19:09;101862.38;;;20.74;67.02
61026;BME280;46911;32.650;-16.902;2023-06-22T08:21:12;101868.81;;;20.83;66.44
61026;BME280;46911;32.650;-16.902;2023-06-22T08:23:16;101855.94;;;20.85;66.25
61026;BME280;46911;32.650;-16.902;2023-06-22T08:25:17;101867.06;;;20.92;68.37
61026;BME280;46911;32.650;-16.902;2023-06-22T08:27:18;101865.06;;;20.94;70.20
61026;BME280;46911;32.650;-16.902;2023-06-22T08:29:21;101874.34;;;21.01;71.60
61026;BME280;46911;32.650;-16.902;2023-06-22T08:31:22;101861.63;;;20.92;71.62
61026;BME280;46911;32.650;-16.902;2023-06-22T08:33:26;101862.50;;;20.93;71.26
61026;BME280;46911;32.650;-16.902;2023-06-22T08:35:28;101871.31;;;21.04;70.70
61026;BME280;46911;32.650;-16.902;2023-06-22T08:37:30;101877.06;;;21.11;71.55
61026;BME280;46911;32.650;-16.902;2023-06-22T08:39:35;101875.19;;;21.12;71.06
61026;BME280;46911;32.650;-16.902;2023-06-22T08:41:37;101866.75;;;21.15;70.82
61026;BME280;46911;32.650;-16.902;2023-06-22T08:43:37;101872.59;;;21.20;71.00
61026;BME280;46911;32.650;-16.902;2023-06-22T08:45:38;101861.91;;;21.09;70.99
61026;BME280;46911;32.650;-16.902;2023-06-22T08:47:40;101874.88;;;21.15;71.32
61026;BME280;46911;32.650;-16.902;2023-06-22T08:49:43;101873.63;;;21.09;71.65
61026;BME280;46911;32.650;-16.902;2023-06-22T08:51:47;101873.75;;;21.17;70.94
61026;BME280;46911;32.650;-16.902;2023-06-22T08:53:49;101878.44;;;21.25;71.14
61026;BME280;46911;32.650;-16.902;2023-06-22T08:55:53;101886.69;;;21.33;70.97
61026;BME280;46911;32.650;-16.902;2023-06-22T08:57:54;101887.28;;;21.37;69.82
61026;BME280;46911;32.650;-16.902;2023-06-22T08:59:55;101888.41;;;21.34;67.48
61026;BME280;46911;32.650;-16.902;2023-06-22T09:01:58;101896.94;;;21.49;66.66
61026;BME280;46911;32.650;-16.902;2023-06-22T09:03:59;101881.81;;;21.47;66.76
61026;BME280;46911;32.650;-16.902;2023-06-22T09:06:00;101890.09;;;21.55;66.61
61026;BME280;46911;32.650;-16.902;2023-06-22T09:08:04;101897.50;;;21.53;66.91
61026;BME280;46911;32.650;-16.902;2023-06-22T09:10:05;101902.38;;;21.59;66.22
61026;BME280;46911;32.650;-16.902;2023-06-22T09:12:09;101897.50;;;21.63;66.56
61026;BME280;46911;32.650;-16.902;2023-06-22T09:14:10;101887.09;;;21.58;66.05
61026;BME280;46911;32.650;-16.902;2023-06-22T09:16:12;101887.53;;;21.53;65.96
61026;BME280;46911;32.650;-16.902;2023-06-22T09:18:15;101890.19;;;21.63;65.98
61026;BME280;46911;32.650;-16.902;2023-06-22T09:20:18;101896.31;;;21.75;65.25
61026;BME280;46911;32.650;-16.902;2023-06-22T09:22:21;101867.47;;;21.64;65.00
61026;BME280;46911;32.650;-16.902;2023-06-22T09:24:22;101897.94;;;21.96;65.72
61026;BME280;46911;32.650;-16.902;2023-06-22T09:26:23;101898.72;;;22.06;65.91
61026;BME280;46911;32.650;-16.902;2023-06-22T09:28:24;101890.47;;;21.98;65.33
61026;BME280;46911;32.650;-16.902;2023-06-22T09:30:26;101899.09;;;21.93;64.76
61026;BME280;46911;32.650;-16.902;2023-06-22T09:32:27;101880.25;;;21.92;64.87
61026;BME280;46911;32.650;-16.902;2023-06-22T09:34:28;101896.53;;;21.92;65.21
61026;BME280;46911;32.650;-16.902;2023-06-22T09:36:29;101897.63;;;21.99;65.12
61026;BME280;46911;32.650;-16.902;2023-06-22T09:38:29;101891.78;;;21.94;65.11
61026;BME280;46911;32.650;-16.902;2023-06-22T09:40:30;101897.47;;;22.00;64.80
61026;BME280;46911;32.650;-16.902;2023-06-22T09:42:35;101897.63;;;21.99;65.10
61026;BME280;46911;32.650;-16.902;2023-06-22T09:44:36;101893.25;;;22.16;65.12
61026;BME280;46911;32.650;-16.902;2023-06-22T09:46:40;101891.16;;;22.37;64.13
61026;BME280;46911;32.650;-16.902;2023-06-22T09:48:48;101908.72;;;22.61;63.15
61026;BME280;46911;32.650;-16.902;2023-06-22T09:50:49;101899.63;;;22.52;63.04
61026;BME280;46911;32.650;-16.902;2023-06-22T09:52:50;101906.25;;;22.68;62.98
61026;BME280;46911;32.650;-16.902;2023-06-22T09:54:57;101896.28;;;23.39;61.75
61026;BME280;46911;32.650;-16.902;2023-06-22T09:56:58;101908.41;;;23.71;60.74
61026;BME280;46911;32.650;-16.902;2023-06-22T09:58:59;101907.19;;;23.65;60.73
61026;BME280;46911;32.650;-16.902;2023-06-22T10:01:00;101903.97;;;24.04;59.41
61026;BME280;46911;32.650;-16.902;2023-06-22T10:03:01;101904.06;;;24.29;57.91
61026;BME280;46911;32.650;-16.902;2023-06-22T10:05:02;101903.84;;;24.22;58.75
61026;BME280;46911;32.650;-16.902;2023-06-22T10:07:03;101883.38;;;24.10;58.71
61026;BME280;46911;32.650;-16.902;2023-06-22T10:09:07;101900.00;;;24.42;57.90
61026;BME280;46911;32.650;-16.902;2023-06-22T10:11:10;101900.75;;;24.68;57.69
61026;BME280;46911;32.650;-16.902;2023-06-22T10:13:11;101901.53;;;24.36;58.74
61026;BME280;46911;32.650;-16.902;2023-06-22T10:15:13;101895.75;;;24.47;58.29
61026;BME280;46911;32.650;-16.902;2023-06-22T10:17:14;101908.59;;;24.63;56.86
61026;BME280;46911;32.650;-16.902;2023-06-22T10:19:15;101893.63;;;25.00;55.93
61026;BME280;46911;32.650;-16.902;2023-06-22T10:21:15;101898.38;;;25.23;55.07
61026;BME280;46911;32.650;-16.902;2023-06-22T10:23:17;101905.75;;;25.87;53.64
61026;BME280;46911;32.650;-16.902;2023-06-22T10:25:18;101896.09;;;25.60;54.72
61026;BME280;46911;32.650;-16.902;2023-06-22T10:27:22;101908.97;;;25.18;54.46
61026;BME280;46911;32.650;-16.902;2023-06-22T10:29:23;101916.44;;;25.16;55.23